createdAt,value
2022-09-30T00:01:29.203Z,100.00
2022-09-30T00:03:57.527Z,100.00
2022-09-30T00:06:27.110Z,100.00
2022-09-30T00:08:54.237Z,100.00
2022-09-30T00:11:26.865Z,100.00
2022-09-30T00:13:55.537Z,100.00
2022-09-30T00:16:24.765Z,100.00
2022-09-30T00:18:55.349Z,100.00
2022-09-30T00:21:23.381Z,100.00
2022-09-30T00:23:50.689Z,100.00
2022-09-30T00:26:21.113Z,100.00
2022-09-30T00:28:53.650Z,100.00
2022-09-30T00:31:22.424Z,100.00
2022-09-30T00:34:06.797Z,100.00
2022-09-30T00:36:48.790Z,100.00
2022-09-30T00:39:18.506Z,100.00
2022-09-30T00:41:48.356Z,100.00
2022-09-30T00:44:45.978Z,100.00
2022-09-30T00:47:38.981Z,100.00
2022-09-30T00:50:55.524Z,100.00
2022-09-30T00:53:29.842Z,100.00
2022-09-30T00:56:19.137Z,100.00
2022-09-30T00:59:09.212Z,100.00
2022-09-30T01:01:40.215Z,100.00
2022-09-30T01:04:13.435Z,100.00
2022-09-30T01:06:41.632Z,100.00
2022-09-30T01:09:08.844Z,100.00
2022-09-30T01:11:35.728Z,100.00
2022-09-30T01:14:12.079Z,100.00
2022-09-30T01:17:12.584Z,100.00
2022-09-30T01:20:38.871Z,100.00
2022-09-30T01:23:45.638Z,100.00
2022-09-30T01:26:37.602Z,100.00
2022-09-30T01:29:44.448Z,100.00
2022-09-30T01:32:43.259Z,100.00
2022-09-30T01:36:06.462Z,100.00
2022-09-30T01:38:55.274Z,100.00
2022-09-30T01:41:42.161Z,100.00
2022-09-30T01:44:53.515Z,100.00
2022-09-30T01:47:26.476Z,100.00
2022-09-30T01:50:14.507Z,100.00
2022-09-30T01:52:56.530Z,100.00
2022-09-30T01:55:37.408Z,100.00
2022-09-30T01:58:36.615Z,100.00
2022-09-30T02:01:10.396Z,100.00
2022-09-30T02:03:49.055Z,100.00
2022-09-30T02:06:40.157Z,100.00
2022-09-30T02:09:22.480Z,100.00
2022-09-30T02:11:49.542Z,100.00
2022-09-30T02:14:35.768Z,100.00
2022-09-30T02:17:25.684Z,100.00
2022-09-30T02:20:06.152Z,100.00
2022-09-30T02:23:06.799Z,100.00
2022-09-30T02:25:40.900Z,100.00
2022-09-30T02:28:13.807Z,100.00
2022-09-30T02:30:46.025Z,100.00
2022-09-30T02:33:26.518Z,100.00
2022-09-30T02:36:03.319Z,100.00
2022-09-30T02:38:37.039Z,100.00
2022-09-30T02:41:16.222Z,100.00
2022-09-30T02:43:43.158Z,100.00
2022-09-30T02:46:47.301Z,100.00
2022-09-30T02:49:31.462Z,100.00
2022-09-30T02:52:27.948Z,100.00
2022-09-30T02:55:21.895Z,100.00
2022-09-30T02:58:04.766Z,100.00
2022-09-30T03:00:32.194Z,100.00
2022-09-30T03:03:07.197Z,100.00
2022-09-30T03:05:34.351Z,100.00
2022-09-30T03:08:01.829Z,100.00
2022-09-30T03:10:31.124Z,100.00
2022-09-30T03:13:03.563Z,100.00
2022-09-30T03:16:05.663Z,100.00
2022-09-30T03:19:21.352Z,100.00
2022-09-30T03:22:20.789Z,100.00
2022-09-30T03:25:18.182Z,100.00
2022-09-30T03:28:06.797Z,100.00
2022-09-30T03:30:46.942Z,100.00
2022-09-30T03:33:49.381Z,100.00
2022-09-30T03:37:03.904Z,100.00
2022-09-30T03:39:57.481Z,100.00
2022-09-30T03:42:34.118Z,100.00
2022-09-30T03:45:20.977Z,100.00
2022-09-30T03:47:52.252Z,100.00
2022-09-30T03:50:23.935Z,100.00
2022-09-30T03:52:51.581Z,100.00
2022-09-30T03:55:19.645Z,100.00
2022-09-30T03:57:46.400Z,100.00
2022-09-30T04:00:13.803Z,100.00
2022-09-30T04:02:40.831Z,100.00
2022-09-30T04:05:08.555Z,100.00
2022-09-30T04:07:35.569Z,100.00
2022-09-30T04:10:02.469Z,100.00
2022-09-30T04:12:29.260Z,100.00
2022-09-30T04:14:56.075Z,100.00
2022-09-30T04:17:23.094Z,100.00
2022-09-30T04:19:50.252Z,100.00
2022-09-30T04:22:17.074Z,100.00
2022-09-30T04:24:43.904Z,100.00
2022-09-30T04:27:10.854Z,100.00
2022-09-30T04:29:37.645Z,100.00
2022-09-30T04:32:04.544Z,100.00
2022-09-30T04:34:31.372Z,100.00
2022-09-30T04:36:58.228Z,100.00
2022-09-30T04:39:25.026Z,100.00
2022-09-30T04:41:53.829Z,100.00
2022-09-30T04:44:21.462Z,100.00
2022-09-30T04:46:48.647Z,100.00
2022-09-30T04:49:15.446Z,100.00
2022-09-30T04:51:45.974Z,100.00
2022-09-30T04:54:13.501Z,100.00
2022-09-30T04:56:40.271Z,100.00
2022-09-30T04:59:07.388Z,100.00
2022-09-30T05:01:34.173Z,100.00
2022-09-30T05:04:01.556Z,100.00
2022-09-30T05:06:28.486Z,100.00
2022-09-30T05:08:55.286Z,100.00
2022-09-30T05:11:22.654Z,100.00
2022-09-30T05:13:50.973Z,100.00
2022-09-30T05:16:18.377Z,100.00
2022-09-30T05:18:46.824Z,100.00
2022-09-30T05:21:17.049Z,100.00
2022-09-30T05:23:43.902Z,100.00
2022-09-30T05:26:12.476Z,100.00
2022-09-30T05:28:41.342Z,100.00
2022-09-30T05:31:08.506Z,100.00
2022-09-30T05:33:35.971Z,100.00
2022-09-30T05:36:07.233Z,100.00
2022-09-30T05:38:35.192Z,100.00
2022-09-30T05:41:13.525Z,100.00
2022-09-30T05:43:45.109Z,100.00
2022-09-30T05:46:11.905Z,100.00
2022-09-30T05:48:38.983Z,100.00
2022-09-30T05:51:06.198Z,100.00
2022-09-30T05:53:35.031Z,100.00
2022-09-30T05:56:02.118Z,100.00
2022-09-30T05:58:29.319Z,100.00
2022-09-30T06:01:00.516Z,100.00
2022-09-30T06:03:32.740Z,100.00
2022-09-30T06:06:01.121Z,100.00
2022-09-30T06:08:28.131Z,100.00
2022-09-30T06:10:54.914Z,100.00
2022-09-30T06:13:22.094Z,100.00
2022-09-30T06:16:00.323Z,100.00
2022-09-30T06:18:29.064Z,100.00
2022-09-30T06:21:01.405Z,100.00
2022-09-30T06:23:30.170Z,100.00
2022-09-30T06:25:57.119Z,100.00
2022-09-30T06:28:24.625Z,100.00
2022-09-30T06:30:51.483Z,100.00
2022-09-30T06:33:18.407Z,100.00
2022-09-30T06:35:47.320Z,100.00
2022-09-30T06:38:17.543Z,100.00
2022-09-30T06:40:46.788Z,100.00
2022-09-30T06:43:14.241Z,100.00
2022-09-30T06:45:41.039Z,100.00
2022-09-30T06:48:11.171Z,100.00
2022-09-30T06:50:39.096Z,100.00
2022-09-30T06:53:08.698Z,100.00
2022-09-30T06:55:39.013Z,100.00
2022-09-30T06:58:09.636Z,100.00
2022-09-30T07:00:36.591Z,100.00
2022-09-30T07:03:05.894Z,100.00
2022-09-30T07:05:33.879Z,100.00
2022-09-30T07:08:01.004Z,100.00
2022-09-30T07:10:27.892Z,100.00
2022-09-30T07:12:55.257Z,100.00
2022-09-30T07:15:22.872Z,100.00
2022-09-30T07:17:54.771Z,100.00
2022-09-30T07:20:21.526Z,100.00
2022-09-30T07:22:48.347Z,100.00
2022-09-30T07:25:15.739Z,100.00
2022-09-30T07:27:42.555Z,100.00
2022-09-30T07:30:18.204Z,100.00
2022-09-30T07:32:50.113Z,100.00
2022-09-30T07:35:19.121Z,100.00
2022-09-30T07:37:46.124Z,100.00
2022-09-30T07:40:12.963Z,100.00
2022-09-30T07:42:45.321Z,100.00
2022-09-30T07:45:15.876Z,100.00
2022-09-30T07:47:42.759Z,100.00
2022-09-30T07:50:10.727Z,100.00
2022-09-30T07:52:37.793Z,100.00
2022-09-30T07:55:05.084Z,100.00
2022-09-30T07:57:31.892Z,100.00
2022-09-30T07:59:58.656Z,100.00
2022-09-30T08:02:25.549Z,100.00
2022-09-30T08:04:52.602Z,100.00
2022-09-30T08:07:19.608Z,100.00
2022-09-30T08:09:46.732Z,100.00
2022-09-30T08:12:13.674Z,100.00
2022-09-30T08:14:40.674Z,100.00
2022-09-30T08:17:07.493Z,100.00
2022-09-30T08:19:34.726Z,100.00
2022-09-30T08:24:33.400Z,100.00
2022-09-30T08:27:00.248Z,100.00
2022-09-30T08:29:53.198Z,100.00
2022-09-30T08:32:14.279Z,100.00
2022-09-30T08:34:41.115Z,100.00
2022-09-30T08:37:10.127Z,100.00
2022-09-30T08:39:38.674Z,100.00
2022-09-30T08:42:45.299Z,100.00
2022-09-30T08:45:36.892Z,100.00
2022-09-30T08:48:29.752Z,100.00
2022-09-30T08:51:29.025Z,100.00
2022-09-30T08:53:59.602Z,100.00
2022-09-30T08:56:30.608Z,100.00
2022-09-30T08:59:37.256Z,100.00
2022-09-30T09:02:23.138Z,100.00
2022-09-30T09:04:54.504Z,100.00
2022-09-30T09:08:06.188Z,100.00
2022-09-30T09:11:33.963Z,100.00
2022-09-30T09:14:37.068Z,100.00
2022-09-30T09:18:04.237Z,100.00
2022-09-30T09:20:47.621Z,100.00
2022-09-30T09:23:14.635Z,100.00
2022-09-30T09:25:41.497Z,100.00
2022-09-30T09:28:39.697Z,100.00
2022-09-30T09:31:17.173Z,100.00
2022-09-30T09:33:44.412Z,100.00
2022-09-30T09:36:51.190Z,100.00
2022-09-30T09:40:03.881Z,100.00
2022-09-30T09:42:58.181Z,100.00
2022-09-30T09:45:56.637Z,100.00
2022-09-30T09:48:23.507Z,100.00
2022-09-30T09:51:08.177Z,100.00
2022-09-30T09:53:53.339Z,100.00
2022-09-30T09:56:25.431Z,100.00
2022-09-30T09:59:20.047Z,100.00
2022-09-30T10:01:52.136Z,100.00
2022-09-30T10:04:30.006Z,100.00
2022-09-30T10:07:02.486Z,100.00
2022-09-30T10:09:35.488Z,100.00
2022-09-30T10:12:08.484Z,100.00
2022-09-30T10:14:48.943Z,100.00
2022-09-30T10:17:30.684Z,100.00
2022-09-30T10:20:15.671Z,100.00
2022-09-30T10:22:43.445Z,100.00
2022-09-30T10:25:24.036Z,100.00
2022-09-30T10:27:56.974Z,100.00
2022-09-30T10:30:45.996Z,100.00
2022-09-30T10:33:29.670Z,100.00
2022-09-30T10:36:29.759Z,100.00
2022-09-30T10:39:21.164Z,100.00
2022-09-30T10:41:48.083Z,100.00
2022-09-30T10:44:22.642Z,100.00
2022-09-30T10:46:53.388Z,100.00
2022-09-30T10:49:49.088Z,100.00
2022-09-30T10:52:33.007Z,100.00
2022-09-30T10:55:09.107Z,93.77
2022-09-30T10:57:40.730Z,99.14
2022-09-30T11:00:25.291Z,90.71
2022-09-30T11:03:13.506Z,89.84
2022-09-30T11:05:46.228Z,89.62
2022-09-30T11:08:31.611Z,83.28
2022-09-30T11:11:09.988Z,85.12
2022-09-30T11:14:03.103Z,89.00
2022-09-30T11:17:06.109Z,90.83
2022-09-30T11:19:51.010Z,84.75
2022-09-30T11:22:36.557Z,82.73
2022-09-30T11:25:08.734Z,88.37
2022-09-30T11:28:03.534Z,85.98
2022-09-30T11:30:46.319Z,89.24
2022-09-30T11:33:42.800Z,89.15
2022-09-30T11:36:30.449Z,84.83
2022-09-30T11:39:50.105Z,86.99
2022-09-30T11:42:36.537Z,80.05
2022-09-30T11:45:26.481Z,73.14
2022-09-30T11:48:01.617Z,73.29
2022-09-30T11:51:11.466Z,73.22
2022-09-30T11:53:59.346Z,75.70
2022-09-30T11:56:35.039Z,68.18
2022-09-30T11:59:10.902Z,71.88
2022-09-30T12:01:44.200Z,65.64
2022-09-30T12:04:15.084Z,60.79
2022-09-30T12:06:55.874Z,61.19
2022-09-30T12:09:32.704Z,67.94
2022-09-30T12:12:15.282Z,70.35
2022-09-30T12:14:57.514Z,70.37
2022-09-30T12:17:44.318Z,70.16
2022-09-30T12:20:25.465Z,70.52
2022-09-30T12:22:59.015Z,72.23
2022-09-30T12:25:33.197Z,73.69
2022-09-30T12:28:52.522Z,70.77
2022-09-30T12:31:40.516Z,70.38
2022-09-30T12:35:01.360Z,71.17
2022-09-30T12:38:16.266Z,70.80
2022-09-30T12:41:11.980Z,70.03
2022-09-30T12:44:33.343Z,67.13
2022-09-30T12:47:05.830Z,65.50
2022-09-30T12:49:33.929Z,67.38
2022-09-30T12:52:07.963Z,60.37
2022-09-30T12:54:47.697Z,60.21
2022-09-30T12:57:25.308Z,60.78
2022-09-30T13:00:04.232Z,63.00
2022-09-30T13:02:41.978Z,64.30
2022-09-30T13:05:27.118Z,62.27
2022-09-30T13:08:06.099Z,60.73
2022-09-30T13:10:38.628Z,66.21
2022-09-30T13:13:32.205Z,61.97
2022-09-30T13:16:04.315Z,65.06
2022-09-30T13:18:31.102Z,65.74
2022-09-30T13:21:08.225Z,64.24
2022-09-30T13:23:46.198Z,59.26
2022-09-30T13:26:34.280Z,56.52
2022-09-30T13:29:01.248Z,58.52
2022-09-30T13:31:33.376Z,55.85
2022-09-30T13:34:06.420Z,53.64
2022-09-30T13:37:04.919Z,57.03
2022-09-30T13:39:34.822Z,58.74
2022-09-30T13:42:27.935Z,59.16
2022-09-30T13:45:04.586Z,59.48
2022-09-30T13:47:43.963Z,52.70
2022-09-30T13:50:13.491Z,55.94
2022-09-30T13:52:41.908Z,56.86
2022-09-30T13:55:45.334Z,58.31
2022-09-30T13:58:40.350Z,57.05
2022-09-30T14:01:19.044Z,59.41
2022-09-30T14:04:26.818Z,57.80
2022-09-30T14:07:33.852Z,52.59
2022-09-30T14:10:37.738Z,54.35
2022-09-30T14:13:21.780Z,51.25
2022-09-30T14:16:03.510Z,53.67
2022-09-30T14:19:13.491Z,53.87
2022-09-30T14:21:57.911Z,54.96
2022-09-30T14:24:36.547Z,50.55
2022-09-30T14:27:30.935Z,49.74
2022-09-30T14:30:09.508Z,49.73
2022-09-30T14:32:42.155Z,48.43
2022-09-30T14:35:15.009Z,48.33
2022-09-30T14:37:55.042Z,51.45
2022-09-30T14:40:34.403Z,49.63
2022-09-30T14:43:15.563Z,50.60
2022-09-30T14:45:46.496Z,51.56
2022-09-30T14:48:23.914Z,52.23
2022-09-30T14:50:58.582Z,51.95
2022-09-30T14:53:31.898Z,51.07
2022-09-30T14:56:00.620Z,49.45
2022-09-30T14:58:39.870Z,49.52
2022-09-30T15:01:18.401Z,50.74
2022-09-30T15:04:14.137Z,51.23
2022-09-30T15:06:47.584Z,49.65
2022-09-30T15:09:26.566Z,49.11
2022-09-30T15:11:53.836Z,48.18
2022-09-30T15:14:23.716Z,48.13
2022-09-30T15:16:57.016Z,48.55
2022-09-30T15:19:34.879Z,48.60
2022-09-30T15:22:06.931Z,49.79
2022-09-30T15:24:35.358Z,48.47
2022-09-30T15:27:03.783Z,48.71
2022-09-30T15:29:30.791Z,50.20
2022-09-30T15:32:21.257Z,49.35
2022-09-30T15:34:48.598Z,50.07
2022-09-30T15:37:33.443Z,50.30
2022-09-30T15:40:20.485Z,48.07
2022-09-30T15:42:57.071Z,49.61
2022-09-30T15:45:34.598Z,50.89
2022-09-30T15:48:25.549Z,50.69
2022-09-30T15:51:00.237Z,51.42
2022-09-30T15:53:36.185Z,51.90
2022-09-30T15:56:37.668Z,51.55
2022-09-30T15:59:13.316Z,50.13
2022-09-30T16:01:46.825Z,48.75
2022-09-30T16:04:16.666Z,47.74
2022-09-30T16:06:58.017Z,51.16
2022-09-30T16:09:39.708Z,52.06
2022-09-30T16:12:19.695Z,55.26
2022-09-30T16:15:00.123Z,56.09
2022-09-30T16:17:29.370Z,58.51
2022-09-30T16:20:02.753Z,60.26
2022-09-30T16:22:34.013Z,62.17
2022-09-30T16:25:28.605Z,64.63
2022-09-30T16:28:13.540Z,65.90
2022-09-30T16:30:51.044Z,70.66
2022-09-30T16:33:18.385Z,73.09
2022-09-30T16:35:47.385Z,71.44
2022-09-30T16:38:16.936Z,72.16
2022-09-30T16:40:43.825Z,72.17
2022-09-30T16:43:11.563Z,71.35
2022-09-30T16:45:40.282Z,72.44
2022-09-30T16:48:16.998Z,73.83
2022-09-30T16:50:54.700Z,75.84
2022-09-30T16:53:21.908Z,77.09
2022-09-30T16:55:48.713Z,78.05
2022-09-30T16:58:15.830Z,79.69
2022-09-30T17:00:44.570Z,79.55
2022-09-30T17:03:17.623Z,80.11
2022-09-30T17:05:46.893Z,82.55
2022-09-30T17:08:15.831Z,84.15
2022-09-30T17:10:45.264Z,84.55
2022-09-30T17:13:12.068Z,85.75
2022-09-30T17:15:38.841Z,86.06
2022-09-30T17:18:08.217Z,85.46
2022-09-30T17:20:37.070Z,87.04
2022-09-30T17:23:07.285Z,89.92
2022-09-30T17:25:34.799Z,91.65
2022-09-30T17:28:01.863Z,91.01
2022-09-30T17:30:28.796Z,92.69
2022-09-30T17:32:55.568Z,92.09
2022-09-30T17:35:22.544Z,93.61
2022-09-30T17:37:49.782Z,91.34
2022-09-30T17:40:46.381Z,95.05
2022-09-30T17:43:13.224Z,98.13
2022-09-30T17:45:43.234Z,99.50
2022-09-30T17:48:11.904Z,100.00
2022-09-30T17:50:44.878Z,100.00
2022-09-30T17:53:14.126Z,98.38
2022-09-30T17:55:41.739Z,99.52
2022-09-30T17:58:09.417Z,100.00
2022-09-30T18:00:36.461Z,100.00
2022-09-30T18:03:03.878Z,100.00
2022-09-30T18:05:33.511Z,100.00
2022-09-30T18:08:00.550Z,100.00
2022-09-30T18:10:28.042Z,100.00
2022-09-30T18:12:55.277Z,100.00
2022-09-30T18:15:23.259Z,100.00
2022-09-30T18:17:50.292Z,100.00
2022-09-30T18:20:18.654Z,100.00
2022-09-30T18:22:47.490Z,100.00
2022-09-30T18:25:20.709Z,100.00
2022-09-30T18:27:55.833Z,100.00
2022-09-30T18:30:23.562Z,100.00
2022-09-30T18:32:52.896Z,100.00
2022-09-30T18:35:24.156Z,100.00
2022-09-30T18:37:52.810Z,100.00
2022-09-30T18:40:25.965Z,100.00
2022-09-30T18:43:02.630Z,100.00
2022-09-30T18:45:34.535Z,100.00
2022-09-30T18:48:01.730Z,100.00
2022-09-30T18:50:30.405Z,100.00
2022-09-30T18:52:58.391Z,100.00
2022-09-30T18:55:25.478Z,100.00
2022-09-30T18:57:56.022Z,100.00
2022-09-30T19:00:23.030Z,100.00
2022-09-30T19:02:52.365Z,100.00
2022-09-30T19:05:19.570Z,100.00
2022-09-30T19:07:46.362Z,100.00
2022-09-30T19:10:13.681Z,100.00
2022-09-30T19:12:44.400Z,100.00
2022-09-30T19:15:15.855Z,100.00
2022-09-30T19:17:43.856Z,100.00
2022-09-30T19:20:11.989Z,100.00
2022-09-30T19:22:38.981Z,100.00
2022-09-30T19:25:08.345Z,100.00
2022-09-30T19:27:38.399Z,100.00
2022-09-30T19:30:08.618Z,100.00
2022-09-30T19:32:35.805Z,100.00
2022-09-30T19:35:17.021Z,100.00
2022-09-30T19:37:55.964Z,100.00
2022-09-30T19:40:29.020Z,100.00
2022-09-30T19:42:55.810Z,100.00
2022-09-30T19:45:25.729Z,100.00
2022-09-30T19:47:53.920Z,100.00
2022-09-30T19:50:20.761Z,100.00
2022-09-30T19:52:55.826Z,100.00
2022-09-30T19:55:25.788Z,100.00
2022-09-30T19:57:52.955Z,100.00
2022-09-30T20:00:19.868Z,100.00
2022-09-30T20:02:46.669Z,100.00
2022-09-30T20:05:13.466Z,100.00
2022-09-30T20:07:40.307Z,100.00
2022-09-30T20:10:07.788Z,100.00
2022-09-30T20:12:34.666Z,100.00
2022-09-30T20:15:19.909Z,100.00
2022-09-30T20:17:46.743Z,100.00
2022-09-30T20:20:31.912Z,100.00
2022-09-30T20:23:01.093Z,100.00
2022-09-30T20:25:30.458Z,100.00
2022-09-30T20:27:57.366Z,100.00
2022-09-30T20:30:25.048Z,100.00
2022-09-30T20:32:52.874Z,100.00
2022-09-30T20:35:21.237Z,100.00
2022-09-30T20:37:48.189Z,100.00
2022-09-30T20:40:15.106Z,100.00
2022-09-30T20:42:43.138Z,100.00
2022-09-30T20:45:10.759Z,100.00
2022-09-30T20:47:39.726Z,100.00
2022-09-30T20:50:08.561Z,100.00
2022-09-30T20:52:35.446Z,100.00
2022-09-30T20:55:02.307Z,100.00
2022-09-30T20:57:30.092Z,100.00
2022-09-30T20:59:59.153Z,100.00
2022-09-30T21:02:29.839Z,100.00
2022-09-30T21:04:57.861Z,100.00
2022-09-30T21:07:26.338Z,100.00
2022-09-30T21:09:53.335Z,100.00
2022-09-30T21:12:20.178Z,100.00
2022-09-30T21:14:47.022Z,100.00
2022-09-30T21:17:13.978Z,100.00
2022-09-30T21:19:40.780Z,100.00
2022-09-30T21:22:07.782Z,100.00
2022-09-30T21:24:34.586Z,100.00
2022-09-30T21:27:01.711Z,100.00
2022-09-30T21:29:30.512Z,100.00
2022-09-30T21:31:57.785Z,100.00
2022-09-30T21:34:24.894Z,100.00
2022-09-30T21:36:51.645Z,100.00
2022-09-30T21:39:18.586Z,100.00
2022-09-30T21:41:45.942Z,100.00
2022-09-30T21:44:13.879Z,100.00
2022-09-30T21:46:44.696Z,100.00
2022-09-30T21:49:20.855Z,100.00
2022-09-30T21:51:47.781Z,100.00
2022-09-30T21:54:15.322Z,100.00
2022-09-30T21:56:43.534Z,100.00
2022-09-30T21:59:11.293Z,100.00
2022-09-30T22:01:38.705Z,100.00
2022-09-30T22:04:06.183Z,100.00
2022-09-30T22:06:33.392Z,100.00
2022-09-30T22:09:01.495Z,100.00
2022-09-30T22:11:31.168Z,100.00
2022-09-30T22:13:59.930Z,100.00
2022-09-30T22:16:37.022Z,100.00
2022-09-30T22:19:07.739Z,100.00
2022-09-30T22:21:37.016Z,100.00
2022-09-30T22:24:05.881Z,100.00
2022-09-30T22:26:33.418Z,100.00
2022-09-30T22:29:07.291Z,100.00
2022-09-30T22:31:34.819Z,100.00
2022-09-30T22:34:25.194Z,100.00
2022-09-30T22:37:11.037Z,100.00
2022-09-30T22:39:38.011Z,100.00
2022-09-30T22:42:05.060Z,100.00
2022-09-30T22:44:36.863Z,100.00
2022-09-30T22:47:04.749Z,100.00
2022-09-30T22:49:34.940Z,100.00
2022-09-30T22:52:03.524Z,100.00
2022-09-30T22:54:30.408Z,100.00
2022-09-30T22:56:59.372Z,100.00
2022-09-30T22:59:27.662Z,100.00
2022-09-30T23:01:55.533Z,100.00
2022-09-30T23:04:24.787Z,100.00
2022-09-30T23:06:53.800Z,100.00
2022-09-30T23:09:21.332Z,100.00
2022-09-30T23:11:53.298Z,100.00
2022-09-30T23:14:21.768Z,100.00
2022-09-30T23:16:49.444Z,100.00
2022-09-30T23:19:16.391Z,100.00
2022-09-30T23:21:43.411Z,100.00
2022-09-30T23:24:10.560Z,100.00
2022-09-30T23:26:37.543Z,100.00
2022-09-30T23:29:10.807Z,100.00
2022-09-30T23:31:38.361Z,100.00
2022-09-30T23:34:05.555Z,100.00
2022-09-30T23:36:36.493Z,100.00
2022-09-30T23:39:12.534Z,100.00
2022-09-30T23:41:39.761Z,100.00
2022-09-30T23:44:06.703Z,100.00
2022-09-30T23:46:33.592Z,100.00
2022-09-30T23:49:00.441Z,100.00
2022-09-30T23:51:27.375Z,100.00
2022-09-30T23:53:54.304Z,100.00
2022-09-30T23:56:21.365Z,100.00
2022-09-30T23:58:48.409Z,100.00
